createdAt,value
2019-02-20T00:02:24.341Z,5.10
2019-02-20T00:04:54.453Z,5.10
2019-02-20T00:07:24.716Z,5.10
2019-02-20T00:09:54.735Z,5.10
2019-02-20T00:12:24.811Z,5.10
2019-02-20T00:14:58.892Z,5.10
2019-02-20T00:17:28.897Z,5.10
2019-02-20T00:19:58.765Z,5.10
2019-02-20T00:22:28.644Z,5.10
2019-02-20T00:24:58.531Z,5.10
2019-02-20T00:27:28.684Z,5.10
2019-02-20T00:29:58.705Z,5.20
2019-02-20T00:32:40.530Z,5.10
2019-02-20T00:35:27.718Z,5.10
2019-02-20T00:38:15.371Z,5.10
2019-02-20T00:41:01.777Z,5.10
2019-02-20T00:43:58.954Z,5.10
2019-02-20T00:46:54.280Z,5.10
2019-02-20T00:50:00.791Z,5.00
2019-02-20T00:53:05.752Z,5.00
2019-02-20T00:56:02.840Z,5.00
2019-02-20T00:59:02.049Z,5.00
2019-02-20T01:02:10.800Z,4.90
2019-02-20T01:05:08.418Z,4.90
2019-02-20T01:08:14.050Z,4.90
2019-02-20T01:11:05.831Z,4.90
2019-02-20T01:14:13.927Z,4.90
2019-02-20T01:17:13.153Z,4.80
2019-02-20T01:20:38.757Z,4.80
2019-02-20T01:23:50.338Z,4.80
2019-02-20T01:26:41.614Z,4.80
2019-02-20T01:29:11.578Z,4.70
2019-02-20T01:31:41.610Z,4.70
2019-02-20T01:34:11.805Z,4.70
2019-02-20T01:36:41.660Z,4.70
2019-02-20T01:39:11.953Z,4.70
2019-02-20T01:41:41.789Z,4.70
2019-02-20T01:44:11.592Z,4.70
2019-02-20T01:46:41.377Z,4.60
2019-02-20T01:49:11.532Z,4.60
2019-02-20T01:51:41.547Z,4.60
2019-02-20T01:54:11.362Z,4.60
2019-02-20T01:56:41.133Z,4.60
2019-02-20T01:59:11.990Z,4.60
2019-02-20T02:01:42.301Z,4.60
2019-02-20T02:04:12.222Z,4.60
2019-02-20T02:06:42.158Z,4.60
2019-02-20T02:09:11.883Z,4.60
2019-02-20T02:11:41.852Z,4.60
2019-02-20T02:14:11.731Z,4.50
2019-02-20T02:16:42.140Z,4.50
2019-02-20T02:19:12.015Z,4.50
2019-02-20T02:21:42.014Z,4.50
2019-02-20T02:24:11.895Z,4.50
2019-02-20T02:26:41.750Z,4.50
2019-02-20T02:29:11.740Z,4.50
2019-02-20T02:31:41.735Z,4.40
2019-02-20T02:34:11.635Z,4.40
2019-02-20T02:36:41.790Z,4.40
2019-02-20T02:39:11.903Z,4.50
2019-02-20T02:41:44.677Z,4.50
2019-02-20T02:44:13.729Z,4.50
2019-02-20T02:46:44.028Z,4.50
2019-02-20T02:49:14.138Z,4.50
2019-02-20T02:51:44.313Z,4.50
2019-02-20T02:54:14.330Z,4.50
2019-02-20T02:56:44.299Z,4.50
2019-02-20T02:59:14.159Z,4.50
2019-02-20T03:01:44.058Z,4.50
2019-02-20T03:04:13.935Z,4.50
2019-02-20T03:06:43.821Z,4.50
2019-02-20T03:09:14.059Z,4.50
2019-02-20T03:11:44.005Z,4.50
2019-02-20T03:14:13.941Z,4.50
2019-02-20T03:16:44.720Z,4.50
2019-02-20T03:19:14.656Z,4.50
2019-02-20T03:21:44.381Z,4.50
2019-02-20T03:24:14.230Z,4.50
2019-02-20T03:26:44.119Z,4.50
2019-02-20T03:29:14.361Z,4.50
2019-02-20T03:31:44.259Z,4.40
2019-02-20T03:34:14.313Z,4.40
2019-02-20T03:36:44.156Z,4.40
2019-02-20T03:39:14.397Z,4.40
2019-02-20T03:41:44.313Z,4.40
2019-02-20T03:44:14.119Z,4.40
2019-02-20T03:46:44.005Z,4.40
2019-02-20T03:49:13.986Z,4.40
2019-02-20T03:51:43.973Z,4.40
2019-02-20T03:54:14.068Z,4.40
2019-02-20T03:56:44.060Z,4.40
2019-02-20T03:59:13.959Z,4.40
2019-02-20T04:01:43.974Z,4.40
2019-02-20T04:04:14.017Z,4.50
2019-02-20T04:06:43.936Z,4.50
2019-02-20T04:09:14.357Z,4.40
2019-02-20T04:11:44.290Z,4.40
2019-02-20T04:14:14.368Z,4.50
2019-02-20T04:16:45.358Z,4.40
2019-02-20T04:19:15.400Z,4.50
2019-02-20T04:21:45.702Z,4.40
2019-02-20T04:24:15.692Z,4.30
2019-02-20T04:26:45.791Z,4.30
2019-02-20T04:29:15.811Z,4.20
2019-02-20T04:31:45.888Z,4.20
2019-02-20T04:34:15.721Z,4.20
2019-02-20T04:36:45.588Z,4.20
2019-02-20T04:39:15.737Z,4.20
2019-02-20T04:41:45.602Z,4.20
2019-02-20T04:44:15.533Z,4.20
2019-02-20T04:46:45.590Z,4.20
2019-02-20T04:49:15.564Z,4.30
2019-02-20T04:51:45.528Z,4.20
2019-02-20T04:54:15.477Z,4.30
2019-02-20T04:56:45.720Z,4.30
2019-02-20T04:59:15.752Z,4.30
2019-02-20T05:01:45.669Z,4.30
2019-02-20T05:04:15.975Z,4.40
2019-02-20T05:06:46.019Z,4.40
2019-02-20T05:09:16.026Z,4.40
2019-02-20T05:11:46.066Z,4.40
2019-02-20T05:14:16.331Z,4.50
2019-02-20T05:16:46.364Z,4.50
2019-02-20T05:19:16.406Z,4.50
2019-02-20T05:21:46.305Z,4.50
2019-02-20T05:24:24.055Z,4.50
2019-02-20T05:26:48.016Z,4.50
2019-02-20T05:29:19.030Z,4.50
2019-02-20T05:31:49.032Z,4.60
2019-02-20T05:34:19.013Z,4.60
2019-02-20T05:36:48.950Z,4.60
2019-02-20T05:39:18.941Z,4.70
2019-02-20T05:41:48.832Z,4.70
2019-02-20T05:44:18.819Z,4.70
2019-02-20T05:46:48.766Z,4.70
2019-02-20T05:49:19.011Z,4.70
2019-02-20T05:51:48.980Z,4.60
2019-02-20T05:54:18.972Z,4.60
2019-02-20T05:56:48.928Z,4.60
2019-02-20T05:59:19.673Z,4.60
2019-02-20T06:01:49.768Z,4.60
2019-02-20T06:04:19.556Z,4.60
2019-02-20T06:06:49.463Z,4.60
2019-02-20T06:09:19.400Z,4.70
2019-02-20T06:11:49.351Z,4.70
2019-02-20T06:14:19.785Z,4.70
2019-02-20T06:16:51.055Z,4.80
2019-02-20T06:19:21.283Z,4.80
2019-02-20T06:21:51.643Z,4.80
2019-02-20T06:24:22.031Z,4.80
2019-02-20T06:26:52.454Z,4.80
2019-02-20T06:29:22.351Z,4.80
2019-02-20T06:31:52.382Z,4.90
2019-02-20T06:34:22.633Z,4.90
2019-02-20T06:36:52.499Z,5.00
2019-02-20T06:39:22.405Z,5.00
2019-02-20T06:41:53.513Z,5.10
2019-02-20T06:44:23.663Z,5.10
2019-02-20T06:46:53.473Z,5.20
2019-02-20T06:49:23.369Z,5.20
2019-02-20T06:51:53.301Z,5.20
2019-02-20T06:54:23.551Z,5.30
2019-02-20T06:56:53.551Z,5.30
2019-02-20T06:59:23.425Z,5.30
2019-02-20T07:01:53.611Z,5.40
2019-02-20T07:04:23.977Z,5.40
2019-02-20T07:07:30.850Z,5.50
2019-02-20T07:10:46.590Z,5.50
2019-02-20T07:13:51.141Z,5.60
2019-02-20T07:16:39.728Z,5.60
2019-02-20T07:19:38.992Z,5.70
2019-02-20T07:22:46.251Z,5.70
2019-02-20T07:25:23.814Z,5.70
2019-02-20T07:28:30.845Z,5.80
2019-02-20T07:31:01.058Z,5.80
2019-02-20T07:33:31.000Z,5.80
2019-02-20T07:36:00.991Z,5.80
2019-02-20T07:38:30.807Z,5.80
2019-02-20T07:41:01.693Z,5.90
2019-02-20T07:43:31.962Z,5.90
2019-02-20T07:46:01.779Z,6.00
2019-02-20T07:48:31.872Z,6.10
2019-02-20T07:51:01.920Z,6.10
2019-02-20T07:53:32.282Z,6.20
2019-02-20T07:56:02.231Z,6.20
2019-02-20T07:58:32.231Z,6.20
2019-02-20T08:01:02.195Z,6.20
2019-02-20T08:03:33.089Z,6.30
2019-02-20T08:06:03.282Z,6.30
2019-02-20T08:08:33.353Z,6.30
2019-02-20T08:11:03.245Z,6.30
2019-02-20T08:13:39.355Z,6.30
2019-02-20T08:16:05.656Z,6.30
2019-02-20T08:18:35.822Z,6.40
2019-02-20T08:21:06.137Z,6.30
2019-02-20T08:23:36.219Z,6.40
2019-02-20T08:26:06.305Z,6.40
2019-02-20T08:28:36.707Z,6.40
2019-02-20T08:31:06.859Z,6.40
2019-02-20T08:33:38.317Z,6.40
2019-02-20T08:36:08.838Z,6.40
2019-02-20T08:38:39.216Z,6.50
2019-02-20T08:41:09.256Z,6.60
2019-02-20T08:43:39.578Z,6.60
2019-02-20T08:46:09.685Z,6.60
2019-02-20T08:48:39.546Z,6.60
2019-02-20T08:51:09.558Z,6.70
2019-02-20T08:53:39.771Z,6.70
2019-02-20T08:56:09.695Z,6.70
2019-02-20T08:58:40.026Z,6.80
2019-02-20T09:01:10.321Z,6.90
2019-02-20T09:03:40.223Z,7.00
2019-02-20T09:06:11.228Z,7.10
2019-02-20T09:08:41.660Z,7.10
2019-02-20T09:11:11.585Z,7.20
2019-02-20T09:13:41.863Z,7.20
2019-02-20T09:16:11.756Z,7.30
2019-02-20T09:18:41.785Z,7.40
2019-02-20T09:21:12.049Z,7.40
2019-02-20T09:23:42.164Z,7.40
2019-02-20T09:26:12.094Z,7.50
2019-02-20T09:28:42.054Z,7.50
2019-02-20T09:31:11.949Z,7.50
2019-02-20T09:33:41.978Z,7.50
2019-02-20T09:36:13.987Z,7.50
2019-02-20T09:38:44.356Z,7.60
2019-02-20T09:41:15.717Z,7.60
2019-02-20T09:43:47.186Z,7.70
2019-02-20T09:46:17.235Z,7.80
2019-02-20T09:48:47.098Z,7.80
2019-02-20T09:51:17.008Z,7.80
2019-02-20T09:53:47.000Z,7.90
2019-02-20T09:56:17.068Z,7.90
2019-02-20T09:58:47.789Z,7.90
2019-02-20T10:01:18.325Z,8.00
2019-02-20T10:03:48.375Z,8.00
2019-02-20T10:06:18.344Z,8.10
2019-02-20T10:08:48.659Z,8.10
2019-02-20T10:11:18.631Z,8.10
2019-02-20T10:13:48.649Z,8.20
2019-02-20T10:16:18.611Z,8.10
2019-02-20T10:18:48.837Z,8.10
2019-02-20T10:21:19.233Z,8.20
2019-02-20T10:23:49.052Z,8.20
2019-02-20T10:26:18.989Z,8.20
2019-02-20T10:28:49.317Z,8.30
2019-02-20T10:31:19.182Z,8.30
2019-02-20T10:33:49.281Z,8.30
2019-02-20T10:36:19.218Z,8.40
2019-02-20T10:38:49.483Z,8.40
2019-02-20T10:41:19.252Z,8.50
2019-02-20T10:43:49.735Z,8.70
2019-02-20T10:46:19.752Z,8.80
2019-02-20T10:48:49.712Z,9.00
2019-02-20T10:51:19.682Z,9.10
2019-02-20T10:53:49.689Z,9.30
2019-02-20T10:56:19.938Z,9.40
2019-02-20T10:58:50.286Z,9.50
2019-02-20T11:01:20.591Z,9.60
2019-02-20T11:03:51.940Z,9.80
2019-02-20T11:06:22.436Z,9.90
2019-02-20T11:08:52.447Z,10.10
2019-02-20T11:11:22.363Z,10.20
2019-02-20T11:13:52.402Z,10.40
2019-02-20T11:16:22.920Z,10.50
2019-02-20T11:18:52.986Z,10.60
2019-02-20T11:21:23.068Z,10.70
2019-02-20T11:23:53.087Z,10.80
2019-02-20T11:26:23.393Z,10.90
2019-02-20T11:28:53.405Z,10.90
2019-02-20T11:31:23.611Z,11.00
2019-02-20T11:33:53.673Z,11.00
2019-02-20T11:36:23.721Z,11.10
2019-02-20T11:38:53.848Z,11.10
2019-02-20T11:41:23.958Z,11.20
2019-02-20T11:43:54.595Z,11.30
2019-02-20T11:46:24.476Z,11.40
2019-02-20T11:48:54.408Z,11.40
2019-02-20T11:51:24.396Z,11.50
2019-02-20T11:53:56.406Z,11.60
2019-02-20T11:56:26.986Z,11.70
2019-02-20T11:58:58.821Z,11.80
2019-02-20T12:01:29.329Z,11.80
2019-02-20T12:04:00.266Z,11.90
2019-02-20T12:06:30.430Z,11.90
2019-02-20T12:09:00.851Z,11.80
2019-02-20T12:11:32.714Z,11.80
2019-02-20T12:14:03.228Z,11.60
2019-02-20T12:16:33.208Z,11.50
2019-02-20T12:19:03.233Z,11.40
2019-02-20T12:21:33.343Z,11.40
2019-02-20T12:24:03.781Z,11.50
2019-02-20T12:26:35.292Z,11.50
2019-02-20T12:29:06.096Z,11.60
2019-02-20T12:31:36.103Z,11.70
2019-02-20T12:34:06.067Z,11.70
2019-02-20T12:36:36.017Z,11.80
2019-02-20T12:39:06.105Z,11.90
2019-02-20T12:41:37.314Z,11.90
2019-02-20T12:44:07.370Z,12.00
2019-02-20T12:46:37.511Z,12.20
2019-02-20T12:49:07.806Z,12.30
2019-02-20T12:51:38.920Z,12.40
2019-02-20T12:54:09.065Z,12.50
2019-02-20T12:56:43.897Z,12.70
2019-02-20T12:59:11.071Z,12.70
2019-02-20T13:01:41.816Z,12.80
2019-02-20T13:04:15.409Z,12.80
2019-02-20T13:06:45.962Z,12.90
2019-02-20T13:09:17.434Z,13.00
2019-02-20T13:11:47.609Z,13.10
2019-02-20T13:14:17.693Z,13.20
2019-02-20T13:16:47.725Z,13.30
2019-02-20T13:19:17.946Z,13.40
2019-02-20T13:21:48.087Z,13.50
2019-02-20T13:24:18.237Z,13.50
2019-02-20T13:26:52.945Z,13.60
2019-02-20T13:29:20.257Z,13.60
2019-02-20T13:31:50.257Z,13.60
2019-02-20T13:34:20.254Z,13.60
2019-02-20T13:36:50.435Z,13.60
2019-02-20T13:39:20.559Z,13.50
2019-02-20T13:41:50.669Z,13.40
2019-02-20T13:44:23.174Z,13.40
2019-02-20T13:46:53.774Z,13.30
2019-02-20T13:49:24.186Z,13.20
2019-02-20T13:51:54.570Z,13.10
2019-02-20T13:54:24.597Z,13.10
2019-02-20T13:57:01.608Z,13.10
2019-02-20T13:59:26.749Z,13.10
2019-02-20T14:01:57.245Z,13.10
2019-02-20T14:04:27.673Z,13.10
2019-02-20T14:06:59.735Z,13.10
2019-02-20T14:09:30.525Z,13.10
2019-02-20T14:12:00.837Z,13.00
2019-02-20T14:14:31.674Z,13.00
2019-02-20T14:17:02.233Z,12.90
2019-02-20T14:19:32.405Z,12.90
2019-02-20T14:22:02.580Z,12.90
2019-02-20T14:24:32.846Z,12.90
2019-02-20T14:27:10.443Z,12.90
2019-02-20T14:29:34.784Z,12.90
2019-02-20T14:32:05.314Z,12.90
2019-02-20T14:34:35.509Z,12.90
2019-02-20T14:37:05.602Z,12.90
2019-02-20T14:39:35.688Z,12.90
2019-02-20T14:42:05.816Z,12.90
2019-02-20T14:44:37.404Z,12.80
2019-02-20T14:47:07.545Z,12.80
2019-02-20T14:49:37.797Z,12.80
2019-02-20T14:52:08.104Z,12.80
2019-02-20T14:54:38.332Z,12.70
2019-02-20T14:57:08.373Z,12.80
2019-02-20T14:59:38.733Z,12.80
2019-02-20T15:02:09.551Z,12.70
2019-02-20T15:04:40.763Z,12.70
2019-02-20T15:07:11.195Z,12.70
2019-02-20T15:09:42.312Z,12.70
2019-02-20T15:12:12.884Z,12.70
2019-02-20T15:14:43.135Z,12.60
2019-02-20T15:17:13.096Z,12.60
2019-02-20T15:19:43.122Z,12.60
2019-02-20T15:22:13.679Z,12.50
2019-02-20T15:24:43.801Z,12.40
2019-02-20T15:27:14.144Z,12.40
2019-02-20T15:29:44.165Z,12.30
2019-02-20T15:32:14.529Z,12.30
2019-02-20T15:34:44.630Z,12.20
2019-02-20T15:37:16.483Z,12.10
2019-02-20T15:39:47.108Z,12.10
2019-02-20T15:42:17.486Z,12.00
2019-02-20T15:44:47.514Z,12.00
2019-02-20T15:47:18.213Z,11.90
2019-02-20T15:49:48.107Z,11.90
2019-02-20T15:52:18.550Z,11.80
2019-02-20T15:54:49.020Z,11.80
2019-02-20T15:57:19.150Z,11.80
2019-02-20T15:59:49.438Z,11.80
2019-02-20T16:02:33.718Z,11.70
2019-02-20T16:05:04.527Z,11.70
2019-02-20T16:07:35.180Z,11.70
2019-02-20T16:10:07.242Z,11.60
2019-02-20T16:12:37.400Z,11.60
2019-02-20T16:15:08.018Z,11.50
2019-02-20T16:17:38.958Z,11.50
2019-02-20T16:20:09.881Z,11.40
2019-02-20T16:22:42.065Z,11.40
2019-02-20T16:25:35.968Z,11.30
2019-02-20T16:28:06.224Z,11.30
2019-02-20T16:30:41.913Z,11.30
2019-02-20T16:33:12.031Z,11.20
2019-02-20T16:35:42.101Z,11.20
2019-02-20T16:38:12.553Z,11.20
2019-02-20T16:40:42.799Z,11.10
2019-02-20T16:43:15.814Z,11.00
2019-02-20T16:45:45.894Z,11.00
2019-02-20T16:48:19.004Z,11.00
2019-02-20T16:50:49.059Z,11.00
2019-02-20T16:53:19.243Z,10.90
2019-02-20T16:55:49.308Z,10.90
2019-02-20T16:58:19.692Z,10.90
2019-02-20T17:00:50.298Z,10.90
2019-02-20T17:03:21.576Z,10.90
2019-02-20T17:05:51.842Z,10.90
2019-02-20T17:08:21.816Z,10.90
2019-02-20T17:10:52.015Z,10.90
2019-02-20T17:13:23.513Z,10.80
2019-02-20T17:15:53.632Z,10.80
2019-02-20T17:18:24.803Z,10.80
2019-02-20T17:20:55.395Z,10.90
2019-02-20T17:23:25.511Z,10.90
2019-02-20T17:25:56.025Z,10.90
2019-02-20T17:28:28.652Z,10.90
2019-02-20T17:30:58.815Z,10.90
2019-02-20T17:33:30.195Z,10.90
2019-02-20T17:36:00.920Z,10.90
2019-02-20T17:38:31.333Z,10.90
2019-02-20T17:41:04.006Z,10.90
2019-02-20T17:43:34.746Z,10.90
2019-02-20T17:46:04.877Z,10.90
2019-02-20T17:48:35.550Z,10.90
2019-02-20T17:51:07.369Z,10.90
2019-02-20T17:53:37.295Z,10.90
2019-02-20T17:56:08.578Z,10.90
2019-02-20T17:58:42.641Z,10.80
2019-02-20T18:01:16.688Z,10.80
2019-02-20T18:03:46.828Z,10.80
2019-02-20T18:06:17.206Z,10.80
2019-02-20T18:08:47.537Z,10.70
2019-02-20T18:11:18.207Z,10.70
2019-02-20T18:13:48.735Z,10.70
2019-02-20T18:16:19.770Z,10.70
2019-02-20T18:18:50.152Z,10.60
2019-02-20T18:21:23.189Z,10.60
2019-02-20T18:23:53.115Z,10.60
2019-02-20T18:26:22.886Z,10.60
2019-02-20T18:28:52.884Z,10.50
2019-02-20T18:31:23.677Z,10.50
2019-02-20T18:33:56.466Z,10.50
2019-02-20T18:36:26.532Z,10.50
2019-02-20T18:38:56.415Z,10.50
2019-02-20T18:41:26.575Z,10.50
2019-02-20T18:43:56.551Z,10.50
2019-02-20T18:46:26.634Z,10.50
2019-02-20T18:48:56.797Z,10.50
2019-02-20T18:51:26.745Z,10.40
2019-02-20T18:53:57.383Z,10.40
2019-02-20T18:56:31.439Z,10.40
2019-02-20T18:59:04.310Z,10.40
2019-02-20T19:01:38.437Z,10.30
2019-02-20T19:04:10.039Z,10.30
2019-02-20T19:06:40.358Z,10.30
2019-02-20T19:09:23.705Z,10.20
2019-02-20T19:12:34.503Z,10.20
2019-02-20T19:15:56.839Z,10.20
2019-02-20T19:19:14.695Z,10.20
2019-02-20T19:22:22.897Z,10.10
2019-02-20T19:25:21.996Z,10.00
2019-02-20T19:28:19.837Z,10.00
2019-02-20T19:31:26.903Z,9.90
2019-02-20T19:34:18.813Z,9.90
2019-02-20T19:37:13.938Z,9.90
2019-02-20T19:40:28.833Z,9.90
2019-02-20T19:43:33.521Z,9.80
2019-02-20T19:46:40.188Z,9.90
2019-02-20T19:49:54.858Z,9.80
2019-02-20T19:53:20.496Z,9.80
2019-02-20T19:56:46.992Z,9.80
2019-02-20T20:00:01.345Z,9.80
2019-02-20T20:02:50.536Z,9.80
2019-02-20T20:05:33.398Z,9.70
2019-02-20T20:08:43.128Z,9.70
2019-02-20T20:11:55.957Z,9.70
2019-02-20T20:15:22.422Z,9.60
2019-02-20T20:18:12.663Z,9.60
2019-02-20T20:21:42.390Z,9.60
2019-02-20T20:24:52.619Z,9.50
2019-02-20T20:27:40.792Z,9.50
2019-02-20T20:30:41.216Z,9.50
2019-02-20T20:33:57.536Z,9.40
2019-02-20T20:36:51.872Z,9.40
2019-02-20T20:40:15.103Z,9.40
2019-02-20T20:43:50.481Z,9.40
2019-02-20T20:47:00.496Z,9.40
2019-02-20T20:50:11.580Z,9.30
2019-02-20T20:53:19.116Z,9.30
2019-02-20T20:56:20.462Z,9.30
2019-02-20T20:59:17.812Z,9.20
2019-02-20T21:02:24.553Z,9.20
2019-02-20T21:05:41.780Z,9.20
2019-02-20T21:08:38.779Z,9.20
2019-02-20T21:11:33.608Z,9.20
2019-02-20T21:14:39.839Z,9.20
2019-02-20T21:17:47.018Z,9.10
2019-02-20T21:20:46.433Z,9.10
2019-02-20T21:23:48.270Z,9.00
2019-02-20T21:26:58.476Z,9.00
2019-02-20T21:29:50.582Z,8.90
2019-02-20T21:33:10.483Z,8.90
2019-02-20T21:36:07.117Z,8.80
2019-02-20T21:39:13.023Z,8.80
2019-02-20T21:42:35.249Z,8.70
2019-02-20T21:45:16.316Z,8.70
2019-02-20T21:48:12.119Z,8.70
2019-02-20T21:51:25.182Z,8.70
2019-02-20T21:54:09.605Z,8.70
2019-02-20T21:57:07.925Z,8.70
2019-02-20T22:00:31.469Z,8.70
2019-02-20T22:03:39.980Z,8.70
2019-02-20T22:06:42.433Z,8.80
2019-02-20T22:09:34.839Z,8.80
2019-02-20T22:12:59.911Z,8.80
2019-02-20T22:16:14.615Z,8.80
2019-02-20T22:19:15.207Z,8.80
2019-02-20T22:22:37.530Z,8.70
2019-02-20T22:26:00.071Z,8.70
2019-02-20T22:28:56.327Z,8.70
2019-02-20T22:32:11.796Z,8.60
2019-02-20T22:35:35.065Z,8.50
2019-02-20T22:39:10.697Z,8.50
2019-02-20T22:42:12.081Z,8.40
2019-02-20T22:45:44.715Z,8.30
2019-02-20T22:49:11.407Z,8.20
2019-02-20T22:52:18.503Z,8.10
2019-02-20T22:55:41.815Z,8.00
2019-02-20T22:58:36.737Z,8.00
2019-02-20T23:01:53.198Z,7.90
2019-02-20T23:04:50.052Z,7.90
2019-02-20T23:07:50.844Z,7.90
2019-02-20T23:10:55.405Z,7.90
2019-02-20T23:13:51.437Z,7.80
2019-02-20T23:16:21.745Z,7.80
2019-02-20T23:18:51.925Z,7.80
2019-02-20T23:21:22.222Z,7.80
2019-02-20T23:23:52.178Z,7.80
2019-02-20T23:26:24.159Z,7.80
2019-02-20T23:28:54.236Z,7.80
2019-02-20T23:31:25.213Z,7.70
2019-02-20T23:33:55.316Z,7.70
2019-02-20T23:36:25.821Z,7.70
2019-02-20T23:38:56.647Z,7.70
2019-02-20T23:41:29.147Z,7.70
2019-02-20T23:44:02.414Z,7.70
2019-02-20T23:46:34.034Z,7.60
2019-02-20T23:49:03.970Z,7.60
2019-02-20T23:51:34.101Z,7.60
2019-02-20T23:54:04.289Z,7.60
2019-02-20T23:56:34.285Z,7.60
2019-02-20T23:59:10.270Z,7.50
